EDT,Max TemperatureF,Mean TemperatureF,Min TemperatureF,Max Dew PointF,MeanDew PointF,Min DewpointF,Max Humidity, Mean Humidity, Min Humidity, Max Sea Level PressureIn, Mean Sea Level PressureIn, Min Sea Level PressureIn, Max VisibilityMiles, Mean VisibilityMiles, Min VisibilityMiles, Max Wind SpeedMPH, Mean Wind SpeedMPH, Max Gust SpeedMPH,PrecipitationIn, CloudCover, Events, WindDirDegrees
2013-10-1,82,66,50,68,60,50,100,85,50,30.09,30.04,29.99,10,8,0,8,1,,0.00,3,Fog,271
2013-10-2,86,68,50,68,60,50,100,81,44,30.11,30.06,30.02,10,7,0,9,1,,0.00,0,Fog,234
2013-10-3,83,68,53,71,63,53,100,89,62,30.13,30.09,30.06,10,6,0,8,1,,0.00,0,Fog,160
2013-10-4,88,72,56,73,65,56,100,86,52,30.11,30.06,30.03,10,6,0,10,1,,0.00,3,Fog,335
2013-10-5,89,73,57,71,66,58,100,83,52,30.11,30.06,30.01,10,7,0,9,1,,0.00,1,Fog,197
2013-10-6,88,73,58,72,67,58,100,81,53,30.04,29.98,29.92,10,7,0,15,3,21,0.00,1,Fog,172
2013-10-7,74,62,49,74,65,50,100,95,77,30.07,29.89,29.80,10,9,2,13,6,22,0.48,5,Rain-Thunderstorm,148
2013-10-8,68,56,44,55,51,44,100,85,56,30.29,30.22,30.08,10,10,7,13,3,20,0.00,0,,30
2013-10-9,61,56,51,57,53,50,100,91,79,30.32,30.27,30.21,10,10,5,13,5,17,0.19,3,Rain,14
2013-10-10,58,56,53,59,56,54,100,100,98,30.20,30.09,29.99,10,8,2,13,9,20,1.47,8,Rain,356
2013-10-11,62,60,57,63,60,58,100,100,100,29.99,29.97,29.94,10,8,2,12,8,17,0.71,8,Rain,350
2013-10-12,64,62,60,65,63,61,100,100,97,30.16,30.07,29.98,10,7,2,9,7,,0.33,8,Rain,18
2013-10-13,61,60,59,62,61,60,100,100,100,30.31,30.25,30.15,10,6,2,9,6,,0.25,8,Rain,15
2013-10-14,70,60,51,61,57,51,100,93,69,30.35,30.28,30.23,10,9,0,8,4,,0.00,5,Fog,28
2013-10-15,72,58,45,61,54,46,100,88,53,30.24,30.17,30.10,10,6,0,7,1,,0.00,3,Fog,44
2013-10-16,74,64,54,66,63,55,100,93,75,30.10,30.01,29.92,10,9,0,8,2,,0.00,4,Fog,179
2013-10-17,76,66,57,68,65,57,100,90,70,29.92,29.84,29.74,10,9,0,12,4,18,0.00,4,Fog-Rain,189
2013-10-18,68,56,43,61,48,44,100,76,42,30.03,29.97,29.84,10,10,1,13,4,16,0.00,0,,311
2013-10-19,64,52,41,61,52,42,100,97,85,30.00,29.90,29.80,10,7,0,10,1,,0.00,4,Fog,194
2013-10-20,65,52,38,50,42,38,100,72,39,30.11,30.03,29.88,10,10,0,14,6,18,0.00,0,Fog,316
2013-10-21,69,52,35,50,43,35,100,77,42,30.15,30.07,29.97,10,9,2,10,2,17,0.00,0,,181
2013-10-22,67,53,39,56,49,40,100,82,61,29.96,29.87,29.82,10,10,2,8,2,,0.00,3,,24
2013-10-23,60,50,41,47,43,38,100,78,50,29.93,29.78,29.67,10,10,7,14,3,18,0.05,5,Rain,319
2013-10-24,56,44,32,39,35,32,100,74,45,30.15,30.04,29.93,10,10,10,14,5,22,0.00,3,,275
2013-10-25,57,42,26,38,33,27,100,80,44,30.33,30.25,30.15,10,10,10,14,3,20,0.00,1,,315
2013-10-26,57,40,24,37,32,25,100,71,41,30.32,30.14,29.95,10,10,4,16,3,25,0.00,1,,206
2013-10-27,64,49,34,43,40,34,100,80,43,30.14,30.05,29.97,10,10,10,8,1,,0.00,2,,249
2013-10-28,67,50,32,48,41,32,100,86,48,30.28,30.21,30.14,10,9,1,5,0,,0.00,0,,37
2013-10-29,65,50,34,49,44,34,100,83,50,30.38,30.32,30.28,10,8,1,5,0,,0.00,2,,29
2013-10-30,70,57,44,61,53,44,100,93,70,30.33,30.23,30.14,10,9,0,6,1,,0.00,5,Fog-Rain,193
2013-10-31,71,60,50,63,59,50,100,90,75,30.18,30.02,29.79,10,7,0,12,3,21,0.00,3,Fog-Rain,186